Time;durP1;ratioP1;P1;durP2;ratioP2;P2;SDS_P1;SDS_P2;PMS_P1;PMS_P2;Temp;Humidity;BMP_temperature;BMP_pressure;BME280_temperature;BME280_humidity;BME280_pressure;Samples;Min_cycle;Max_cycle;Signal;HPM_P1;HPM_P2
2023/01/14 00:01:21;;;;;;;11.00;2.40;;;;;;;8.94;76.18;99486.66;5011610;28;20057;-80
2023/01/14 00:03:48;;;;;;;14.52;2.47;;;;;;;8.95;76.34;99485.75;5012215;28;20050;-80
2023/01/14 00:06:17;;;;;;;6.93;1.80;;;;;;;8.96;76.58;99489.22;5029651;28;20057;-79
2023/01/14 00:08:44;;;;;;;10.00;1.90;;;;;;;8.96;76.40;99489.22;4993453;28;20085;-78
2023/01/14 00:11:13;;;;;;;14.43;2.35;;;;;;;8.95;76.28;99492.78;5010314;28;20089;-79
2023/01/14 00:13:41;;;;;;;14.50;2.35;;;;;;;8.96;76.58;99494.47;4992743;28;20060;-79
2023/01/14 00:16:12;;;;;;;14.23;2.17;;;;;;;8.96;75.36;99490.06;5020252;28;20053;-80
2023/01/14 00:18:39;;;;;;;11.60;2.08;;;;;;;8.99;76.39;99492.53;5026368;28;20061;-79
2023/01/14 00:21:09;;;;;;;9.68;2.05;;;;;;;9.01;76.55;99492.44;5030443;28;20049;-78
2023/01/14 00:23:36;;;;;;;8.20;2.40;;;;;;;9.03;76.35;99497.59;5029916;28;20064;-79
2023/01/14 00:26:13;;;;;;;14.48;2.67;;;;;;;9.00;74.47;99501.25;5012150;28;20053;-80
2023/01/14 00:28:41;;;;;;;12.80;2.63;;;;;;;9.06;76.15;99510.56;5029644;28;20076;-80
2023/01/14 00:31:14;;;;;;;8.65;1.98;;;;;;;9.07;76.10;99501.75;5029745;28;20103;-79
2023/01/14 00:33:42;;;;;;;9.82;2.20;;;;;;;9.08;75.94;99506.09;5029714;28;20164;-79
2023/01/14 00:36:11;;;;;;;11.85;2.47;;;;;;;9.08;76.05;99503.47;5031723;28;20061;-79
2023/01/14 00:38:38;;;;;;;9.70;1.95;;;;;;;9.10;76.02;99504.22;5033363;28;20077;-79
2023/01/14 00:41:22;;;;;;;14.23;2.80;;;;;;;9.09;75.30;99511.22;5033486;28;20564;-80
2023/01/14 00:43:52;;;;;;;10.70;2.83;;;;;;;9.12;76.13;99507.59;5033338;28;20050;-79
2023/01/14 00:48:45;;;;;;;9.23;2.15;;;;;;;9.12;75.68;99502.34;5066273;22;20049;-80
2023/01/14 00:51:13;;;;;;;9.63;2.33;;;;;;;9.12;75.68;99508.44;5032360;28;20073;-81
2023/01/14 00:53:41;;;;;;;10.50;2.38;;;;;;;9.13;75.82;99502.25;5032578;28;20057;-80
2023/01/14 00:56:08;;;;;;;9.73;2.20;;;;;;;9.13;75.70;99501.44;5032079;28;20053;-80
2023/01/14 00:58:35;;;;;;;17.17;2.80;;;;;;;9.13;75.18;99501.44;5032395;28;20065;-81
2023/01/14 01:01:03;;;;;;;7.07;2.08;;;;;;;9.10;75.33;99504.22;5014361;28;20059;-80
2023/01/14 01:03:30;;;;;;;14.32;2.42;;;;;;;9.08;75.21;99503.47;5032030;28;20420;-80
2023/01/14 01:05:56;;;;;;;11.82;2.17;;;;;;;9.05;75.08;99507.09;5031961;28;20065;-80
2023/01/14 01:08:24;;;;;;;10.48;2.00;;;;;;;9.05;75.32;99519.38;5014040;28;20084;-80
2023/01/14 01:10:52;;;;;;;10.93;2.08;;;;;;;9.04;75.27;99528.19;5031821;28;20069;-80
2023/01/14 01:13:20;;;;;;;7.82;2.20;;;;;;;9.01;75.22;99518.69;5031658;28;20057;-80
2023/01/14 01:15:46;;;;;;;11.65;2.65;;;;;;;9.01;75.21;99530.97;5014337;28;20061;-80
2023/01/14 01:18:13;;;;;;;9.93;2.28;;;;;;;8.98;75.37;99526.75;5031488;28;20093;-80
2023/01/14 01:20:42;;;;;;;13.10;2.15;;;;;;;9.00;75.43;99527.50;5014189;28;20069;-80
2023/01/14 01:23:11;;;;;;;11.05;2.35;;;;;;;8.98;74.97;99529.38;5031601;28;20072;-80
2023/01/14 01:25:38;;;;;;;9.55;2.35;;;;;;;9.02;75.34;99540.53;5031574;28;20476;-80
2023/01/14 01:28:05;;;;;;;10.25;3.47;;;;;;;9.02;75.72;99541.41;5031557;28;20068;-80
2023/01/14 01:30:32;;;;;;;12.80;2.20;;;;;;;9.02;75.35;99543.16;5031725;28;20061;-80
2023/01/14 01:32:58;;;;;;;18.10;2.53;;;;;;;9.03;75.73;99553.59;5013956;28;20057;-80
2023/01/14 01:35:24;;;;;;;12.52;2.70;;;;;;;9.06;76.05;99563.06;5031446;28;20111;-80
2023/01/14 01:37:51;;;;;;;16.45;3.38;;;;;;;9.09;75.95;99569.00;5031285;28;20405;-80
2023/01/14 01:40:19;;;;;;;13.55;2.90;;;;;;;9.12;75.99;99563.59;5031384;28;20104;-80
2023/01/14 01:42:54;;;;;;;15.05;2.58;;;;;;;9.15;75.90;99559.94;5031277;28;20511;-80
2023/01/14 01:45:27;;;;;;;11.35;2.72;;;;;;;9.16;75.14;99566.88;5031384;28;20084;-80
2023/01/14 01:48:00;;;;;;;19.45;3.30;;;;;;;9.16;75.02;99558.19;5031079;28;20084;-80
2023/01/14 01:50:26;;;;;;;14.52;3.67;;;;;;;9.19;75.57;99565.91;5013957;28;20057;-80
2023/01/14 01:52:53;;;;;;;17.08;3.40;;;;;;;9.18;75.72;99578.16;5031079;28;20050;-80
2023/01/14 01:55:20;;;;;;;18.67;4.10;;;;;;;9.17;75.81;99562.50;5031401;28;20095;-80
2023/01/14 01:57:55;;;;;;;14.98;3.90;;;;;;;9.18;75.79;99574.69;5030932;28;20514;-80
2023/01/14 02:00:23;;;;;;;18.05;3.47;;;;;;;9.18;75.48;99564.19;5031345;28;20061;-80
2023/01/14 02:02:57;;;;;;;16.63;3.75;;;;;;;9.13;74.22;99553.94;5031138;28;20058;-80
2023/01/14 02:05:24;;;;;;;19.75;4.45;;;;;;;9.16;75.49;99561.63;5013091;28;20462;-80
2023/01/14 02:07:51;;;;;;;19.80;3.70;;;;;;;9.15;75.85;99561.75;5030848;28;20054;-80
2023/01/14 02:10:18;;;;;;;14.68;3.92;;;;;;;9.13;75.57;99567.91;5030927;28;20107;-80
2023/01/14 02:13:10;;;;;;;17.95;3.80;;;;;;;9.08;73.41;99561.22;5030859;28;20089;-80
2023/01/14 02:16:08;;;;;;;14.48;4.05;;;;;;;9.08;74.02;99571.72;5012976;28;20053;-80
2023/01/14 02:18:49;;;;;;;17.05;3.85;;;;;;;9.08;74.68;99562.06;5012966;28;20049;-80
2023/01/14 02:21:24;;;;;;;16.92;3.75;;;;;;;9.08;75.06;99569.09;5031003;28;20407;-80
2023/01/14 02:24:13;;;;;;;13.65;3.40;;;;;;;9.09;75.51;99566.38;5030791;28;20053;-80
2023/01/14 02:27:01;;;;;;;19.98;3.35;;;;;;;9.05;73.58;99564.00;5030456;28;20115;-79
2023/01/14 02:29:42;;;;;;;18.63;4.38;;;;;;;9.06;74.73;99566.56;5030450;28;20123;-80
2023/01/14 02:32:14;;;;;;;21.40;3.92;;;;;;;9.05;74.82;99567.47;5030445;28;20065;-80
2023/01/14 02:35:02;;;;;;;16.83;3.75;;;;;;;9.04;74.42;99565.78;5030213;28;20057;-80
2023/01/14 02:37:44;;;;;;;13.23;3.03;;;;;;;9.05;74.95;99559.59;5030294;28;20057;-80
2023/01/14 02:40:28;;;;;;;19.38;4.15;;;;;;;9.08;75.76;99559.44;5030324;28;20085;-79
2023/01/14 02:46:09;;;;;;;18.50;3.85;;;;;;;9.05;74.84;99556.97;5030056;28;20057;-79
2023/01/14 02:48:38;;;;;;;16.33;3.90;;;;;;;9.07;75.55;99567.38;5029932;28;20090;-79
2023/01/14 02:51:04;;;;;;;16.60;3.60;;;;;;;9.04;75.56;99562.31;5030087;28;20053;-79
2023/01/14 02:53:33;;;;;;;20.65;3.53;;;;;;;9.06;75.40;99563.06;5029980;28;20455;-79
2023/01/14 02:55:59;;;;;;;27.30;4.03;;;;;;;9.04;75.75;99555.28;5030192;28;20057;-79
2023/01/14 02:58:55;;;;;;;20.92;4.35;;;;;;;9.02;74.11;99561.53;5029363;28;20484;-80
2023/01/14 03:01:53;;;;;;;11.23;3.53;;;;;;;9.01;73.38;99555.44;5030148;28;20138;-79
2023/01/14 03:04:23;;;;;;;19.27;4.00;;;;;;;9.03;74.92;99560.59;5029863;28;20496;-79
2023/01/14 03:07:02;;;;;;;18.30;3.90;;;;;;;8.99;72.83;99563.41;5029623;28;20049;-80
2023/01/14 03:09:48;;;;;;;21.67;4.13;;;;;;;8.99;73.64;99546.81;5029750;28;20057;-79
2023/01/14 03:12:26;;;;;;;15.75;4.07;;;;;;;8.98;73.03;99545.94;5030208;28;20096;-80
2023/01/14 03:15:23;;;;;;;24.70;4.18;;;;;;;8.97;73.33;99548.69;5029953;28;20061;-80
2023/01/14 03:18:12;;;;;;;21.63;3.50;;;;;;;8.99;74.44;99555.53;4996743;28;20140;-79
2023/01/14 03:20:43;;;;;;;17.70;3.85;;;;;;;8.98;74.17;99534.63;5014860;28;20100;-79
2023/01/14 03:23:21;;;;;;;21.80;4.22;;;;;;;8.97;74.05;99546.88;5029989;28;20107;-80
2023/01/14 03:25:50;;;;;;;18.38;3.97;;;;;;;8.97;74.58;99544.25;5029496;28;20507;-79
2023/01/14 03:28:22;;;;;;;19.98;4.28;;;;;;;8.95;74.11;99535.63;5029155;28;20160;-79
2023/01/14 03:30:54;;;;;;;19.10;3.42;;;;;;;8.96;75.03;99539.09;5029407;28;20053;-79
2023/01/14 03:33:27;;;;;;;23.60;4.30;;;;;;;8.95;74.39;99543.50;5012102;28;20459;-79
2023/01/14 03:35:57;;;;;;;21.83;4.35;;;;;;;8.93;74.60;99547.16;5029430;28;20115;-79
2023/01/14 03:38:32;;;;;;;21.00;4.47;;;;;;;8.91;74.11;99538.50;5029225;28;20049;-79
2023/01/14 03:41:00;;;;;;;22.08;4.45;;;;;;;8.92;74.91;99540.19;5029356;28;20115;-80
2023/01/14 03:43:41;;;;;;;24.15;4.22;;;;;;;8.89;73.66;99535.94;5029195;28;20101;-79
2023/01/14 03:46:08;;;;;;;24.92;4.97;;;;;;;8.91;74.88;99547.22;5029136;28;20076;-79
2023/01/14 03:48:34;;;;;;;24.42;5.55;;;;;;;8.90;74.94;99532.38;5028846;28;20045;-79
2023/01/14 03:51:27;;;;;;;23.98;4.43;;;;;;;8.87;73.08;99532.56;5011732;28;20088;-79
2023/01/14 03:54:43;;;;;;;18.13;4.05;;;;;;;8.87;73.11;99516.81;5029162;28;20126;-79
2023/01/14 03:57:31;;;;;;;22.40;4.63;;;;;;;8.89;72.76;99520.19;5007204;28;20045;-80
2023/01/14 04:00:07;;;;;;;29.50;4.97;;;;;;;8.89;73.89;99517.56;5029115;28;20512;-79
2023/01/14 04:02:35;;;;;;;24.50;4.20;;;;;;;8.89;74.62;99512.31;5029216;28;20492;-79
2023/01/14 04:05:02;;;;;;;21.95;3.92;;;;;;;8.87;74.61;99532.56;5028993;28;20119;-79
2023/01/14 04:07:28;;;;;;;17.77;4.38;;;;;;;8.85;74.65;99526.53;5028847;28;20049;-79
2023/01/14 04:09:54;;;;;;;25.48;4.70;;;;;;;8.83;74.62;99533.66;5029095;28;20076;-79
2023/01/14 04:12:23;;;;;;;16.38;3.83;;;;;;;8.80;74.32;99528.56;5033028;28;20095;-80
2023/01/14 04:17:37;;;;;;;21.10;5.00;;;;;;;8.72;74.50;99514.06;5032760;28;20107;-80
2023/01/14 04:20:05;;;;;;;16.35;4.20;;;;;;;8.70;74.24;99513.31;5033023;28;20257;-80
2023/01/14 04:22:32;;;;;;;28.65;5.50;;;;;;;8.68;74.38;99509.09;5033035;28;20400;-79
2023/01/14 04:24:58;;;;;;;17.95;4.20;;;;;;;8.65;74.61;99511.88;5015283;28;20054;-79
2023/01/14 04:27:25;;;;;;;26.05;5.10;;;;;;;8.62;74.28;99510.25;5032676;28;20049;-79
2023/01/14 04:29:51;;;;;;;30.00;4.82;;;;;;;8.58;74.67;99506.09;5032861;28;20084;-80
2023/01/14 04:32:18;;;;;;;17.58;4.57;;;;;;;8.56;74.74;99498.31;5032715;28;20053;-79
2023/01/14 04:34:44;;;;;;;18.20;5.32;;;;;;;8.55;74.63;99495.75;5027483;28;20103;-79
2023/01/14 04:37:10;;;;;;;21.20;4.85;;;;;;;8.52;74.88;99498.53;5032121;28;20088;-79
2023/01/14 04:39:37;;;;;;;18.75;4.65;;;;;;;8.50;75.03;99503.84;5032265;28;20119;-79
2023/01/14 04:44:48;;;;;;;19.38;4.40;;;;;;;8.51;75.34;99500.28;5032510;28;20053;-79
2023/01/14 04:47:15;;;;;;;27.95;5.03;;;;;;;8.51;75.41;99502.91;5032026;28;20085;-79
2023/01/14 04:49:42;;;;;;;24.85;4.80;;;;;;;8.50;75.37;99503.84;5032360;28;20120;-79
2023/01/14 04:52:08;;;;;;;24.67;4.13;;;;;;;8.50;75.46;99488.13;5032275;28;20065;-79
2023/01/14 04:54:34;;;;;;;23.65;4.50;;;;;;;8.51;75.55;99488.94;5032438;28;20057;-79
2023/01/14 04:57:01;;;;;;;21.15;4.93;;;;;;;8.50;75.43;99498.59;5032104;28;20104;-79
2023/01/14 04:59:27;;;;;;;15.90;4.28;;;;;;;8.50;75.56;99493.34;5032169;28;20109;-79
2023/01/14 05:01:54;;;;;;;25.90;5.35;;;;;;;8.51;75.42;99487.19;5032207;28;20049;-79
2023/01/14 05:04:20;;;;;;;22.77;4.88;;;;;;;8.52;75.61;99490.66;5014583;28;20435;-79
2023/01/14 05:06:47;;;;;;;23.95;5.20;;;;;;;8.52;75.35;99486.25;5031366;28;20534;-79
2023/01/14 05:09:13;;;;;;;31.58;5.90;;;;;;;8.54;75.55;99488.81;5031982;28;20057;-79
2023/01/14 05:11:40;;;;;;;25.30;4.72;;;;;;;8.53;75.42;99480.13;5032001;28;20142;-79
2023/01/14 05:14:06;;;;;;;25.73;5.95;;;;;;;8.51;75.54;99468.81;5032179;28;20092;-79
2023/01/14 05:16:32;;;;;;;27.17;5.97;;;;;;;8.51;75.58;99473.19;5032048;28;20057;-79
2023/01/14 05:18:59;;;;;;;29.25;5.45;;;;;;;8.49;74.96;99462.81;5031861;28;20349;-79
2023/01/14 05:21:25;;;;;;;23.80;4.88;;;;;;;8.48;75.43;99456.72;5031356;28;20061;-79
2023/01/14 05:23:52;;;;;;;27.42;5.35;;;;;;;8.46;75.11;99452.47;5031742;28;20116;-79
2023/01/14 05:26:18;;;;;;;29.23;5.03;;;;;;;8.43;74.86;99453.50;5013834;28;20057;-79
2023/01/14 05:28:44;;;;;;;25.42;5.35;;;;;;;8.42;75.27;99456.19;5014076;28;20054;-79
2023/01/14 05:31:11;;;;;;;21.63;4.40;;;;;;;8.40;75.04;99456.25;5031730;28;20073;-79
2023/01/14 05:33:37;;;;;;;25.92;5.20;;;;;;;8.39;75.45;99448.47;5031649;28;20065;-80
2023/01/14 05:36:05;;;;;;;24.08;4.65;;;;;;;8.37;75.53;99432.81;5031361;28;20120;-80
2023/01/14 05:38:32;;;;;;;20.08;5.72;;;;;;;8.35;75.25;99432.06;5031467;28;20053;-79
2023/01/14 05:40:58;;;;;;;24.88;4.75;;;;;;;8.34;75.63;99436.44;5031276;28;20057;-80
2023/01/14 05:46:14;;;;;;;25.80;5.70;;;;;;;8.28;75.23;99434.16;5031080;28;20118;-79
2023/01/14 05:48:41;;;;;;;21.60;5.10;;;;;;;8.28;75.45;99428.06;5030972;28;20045;-79
2023/01/14 05:51:12;;;;;;;37.25;4.65;;;;;;;8.26;75.21;99411.56;5030353;28;20500;-80
2023/01/14 05:53:39;;;;;;;32.63;5.28;;;;;;;8.26;75.89;99401.09;5013442;28;20057;-79
2023/01/14 05:56:06;;;;;;;22.05;5.35;;;;;;;8.24;75.49;99387.19;5030671;28;20104;-80
2023/01/14 05:58:33;;;;;;;30.80;6.00;;;;;;;8.23;75.66;99390.75;5013023;28;20073;-80
2023/01/14 06:06:43;;;;;;;33.60;5.95;;;;;;;8.18;75.25;99385.75;5028660;28;20144;-79
2023/01/14 06:09:11;;;;;;;28.58;6.18;;;;;;;8.17;75.53;99387.53;5028139;28;20470;-80
2023/01/14 06:11:45;;;;;;;30.15;5.97;;;;;;;8.14;75.91;99382.44;5030732;28;20054;-79
2023/01/14 06:14:12;;;;;;;30.63;6.13;;;;;;;8.14;76.27;99386.84;5030950;28;20100;-79
2023/01/14 06:16:41;;;;;;;23.70;5.18;;;;;;;8.13;76.29;99383.38;5030374;28;20107;-80
2023/01/14 06:19:09;;;;;;;33.22;5.50;;;;;;;8.13;75.88;99377.28;5031169;28;20393;-80
2023/01/14 06:21:37;;;;;;;38.05;6.78;;;;;;;8.11;76.17;99366.88;5013070;28;20049;-80
2023/01/14 06:24:03;;;;;;;29.13;5.90;;;;;;;8.11;76.16;99368.66;5026289;28;20053;-79
2023/01/14 06:26:32;;;;;;;27.25;5.75;;;;;;;8.10;76.01;99372.22;5030117;28;20101;-79
2023/01/14 06:29:02;;;;;;;32.17;5.90;;;;;;;8.10;76.13;99377.47;5030411;28;20116;-79
2023/01/14 06:31:28;;;;;;;24.50;5.95;;;;;;;8.10;76.02;99372.22;5029894;28;20049;-79
2023/01/14 06:33:56;;;;;;;30.45;7.15;;;;;;;8.08;76.18;99356.56;5029368;28;20678;-79
2023/01/14 06:36:23;;;;;;;27.45;6.68;;;;;;;8.06;76.10;99356.66;5030034;28;20103;-79
2023/01/14 06:38:49;;;;;;;28.80;6.35;;;;;;;8.04;76.08;99355.03;5028253;28;20081;-79
2023/01/14 06:41:16;;;;;;;34.30;6.82;;;;;;;8.04;75.97;99339.31;5030213;28;20498;-79
2023/01/14 06:43:42;;;;;;;35.30;6.88;;;;;;;8.02;76.33;99335.91;5030029;28;20159;-80
2023/01/14 06:46:10;;;;;;;30.40;7.43;;;;;;;8.01;76.24;99332.47;5027254;28;20075;-80
2023/01/14 06:51:18;;;;;;;24.63;5.63;;;;;;;7.95;75.91;99320.53;5038872;23;20061;-80
2023/01/14 06:53:44;;;;;;;27.15;6.15;;;;;;;7.95;76.23;99309.19;5031388;28;20075;-80
2023/01/14 06:56:16;;;;;;;34.55;7.07;;;;;;;7.93;76.27;99298.78;5031198;28;20065;-79
2023/01/14 06:58:45;;;;;;;33.40;6.80;;;;;;;7.93;76.29;99300.56;5013495;28;20144;-79
2023/01/14 07:01:12;;;;;;;23.58;5.05;;;;;;;7.91;76.44;99291.94;5025528;28;20054;-80
2023/01/14 07:03:39;;;;;;;32.00;5.68;;;;;;;7.89;76.52;99284.16;5030678;28;20053;-79
2023/01/14 07:06:06;;;;;;;20.98;5.32;;;;;;;7.90;76.45;99293.72;5029772;28;20053;-79
2023/01/14 07:08:33;;;;;;;29.05;5.43;;;;;;;7.89;76.55;99292.00;5031034;28;20057;-79
2023/01/14 07:11:00;;;;;;;26.48;5.55;;;;;;;7.88;76.77;99287.69;5031119;28;20588;-79
2023/01/14 07:13:26;;;;;;;24.05;4.68;;;;;;;7.86;76.77;99276.47;5030871;28;20125;-80
2023/01/14 07:15:53;;;;;;;31.67;5.35;;;;;;;7.87;76.97;99270.28;5013246;28;20089;-79
2023/01/14 07:18:20;;;;;;;18.83;4.90;;;;;;;7.87;76.90;99275.53;5030462;28;20049;-78
2023/01/14 07:20:46;;;;;;;26.77;5.38;;;;;;;7.87;77.04;99267.66;5030860;28;20208;-79
2023/01/14 07:23:13;;;;;;;22.92;4.88;;;;;;;7.85;76.41;99259.03;5030787;28;20148;-79
2023/01/14 07:25:40;;;;;;;28.83;5.65;;;;;;;7.89;76.96;99247.47;5030671;28;20053;-79
2023/01/14 07:28:06;;;;;;;25.13;4.88;;;;;;;7.89;76.92;99234.34;5012980;28;20414;-79
2023/01/14 07:30:33;;;;;;;26.95;5.10;;;;;;;7.90;76.90;99249.16;5030612;28;20053;-79
2023/01/14 07:33:00;;;;;;;21.73;4.55;;;;;;;7.92;76.87;99239.44;5030485;28;20065;-79
2023/01/14 07:35:28;;;;;;;26.15;5.00;;;;;;;7.94;76.62;99232.34;5030682;28;20141;-78
2023/01/14 07:37:57;;;;;;;27.00;4.38;;;;;;;7.94;76.81;99221.88;5030919;28;20088;-79
2023/01/14 07:40:24;;;;;;;22.63;4.78;;;;;;;7.95;76.56;99209.59;5030639;28;20064;-79
2023/01/14 07:42:58;;;;;;;29.67;5.13;;;;;;;7.93;75.13;99200.97;5012760;28;20738;-79
2023/01/14 07:45:26;;;;;;;22.08;4.72;;;;;;;7.97;76.58;99193.78;5030294;28;20059;-79
2023/01/14 07:47:52;;;;;;;27.83;5.38;;;;;;;7.97;76.32;99196.41;5030056;28;20056;-79
2023/01/14 07:50:20;;;;;;;23.13;4.28;;;;;;;7.97;76.66;99202.50;5030478;28;20091;-79
2023/01/14 07:52:54;;;;;;;22.80;3.97;;;;;;;7.95;75.60;99197.34;5030320;28;20060;-79
2023/01/14 07:55:21;;;;;;;25.92;4.57;;;;;;;7.98;76.66;99196.31;5030636;28;20067;-79
2023/01/14 07:57:48;;;;;;;27.23;4.18;;;;;;;8.00;76.58;99188.38;5030175;28;20518;-79
2023/01/14 08:00:16;;;;;;;26.52;5.28;;;;;;;8.00;76.37;99191.00;5012589;28;20093;-79
2023/01/14 08:02:43;;;;;;;19.80;3.78;;;;;;;8.01;76.78;99172.56;5030082;28;20482;-79
2023/01/14 08:05:09;;;;;;;20.98;3.95;;;;;;;8.03;76.66;99175.09;5029917;28;20379;-79
2023/01/14 08:07:36;;;;;;;24.00;4.68;;;;;;;8.04;76.41;99171.56;5029907;28;20057;-79
2023/01/14 08:10:04;;;;;;;28.40;4.45;;;;;;;8.05;76.43;99168.00;5030137;28;20119;-78
2023/01/14 08:12:34;;;;;;;25.10;4.53;;;;;;;8.05;76.11;99163.59;5029968;28;20479;-78
2023/01/14 08:15:02;;;;;;;23.10;4.03;;;;;;;8.06;76.27;99164.44;5029792;28;20057;-79
2023/01/14 08:17:28;;;;;;;21.45;4.95;;;;;;;8.08;75.96;99167.84;5030177;28;20060;-78
2023/01/14 08:19:55;;;;;;;23.40;4.13;;;;;;;8.10;76.30;99160.72;5030078;28;20057;-78
2023/01/14 08:22:21;;;;;;;22.00;4.30;;;;;;;8.10;76.51;99142.38;5030383;28;20144;-78
2023/01/14 08:24:48;;;;;;;29.52;4.40;;;;;;;8.11;76.07;99144.03;5030161;28;20080;-78
2023/01/14 08:27:14;;;;;;;27.75;5.15;;;;;;;8.12;75.71;99137.91;5029890;28;20065;-79
2023/01/14 08:29:41;;;;;;;19.33;3.85;;;;;;;8.13;76.02;99126.47;5030086;28;20059;-78
2023/01/14 08:32:11;;;;;;;27.52;5.55;;;;;;;8.14;75.96;99122.06;5030164;28;20141;-78
2023/01/14 08:34:38;;;;;;;15.50;3.33;;;;;;;8.18;75.90;99107.84;5028262;28;20063;-79
2023/01/14 08:37:04;;;;;;;22.70;4.00;;;;;;;8.19;76.15;99102.50;5029557;28;20556;-78
2023/01/14 08:39:31;;;;;;;20.08;3.83;;;;;;;8.21;75.88;99095.41;5029834;28;20140;-79
2023/01/14 08:41:58;;;;;;;19.77;3.78;;;;;;;8.23;75.73;99095.34;5029801;28;20069;-78
2023/01/14 08:44:24;;;;;;;21.30;3.38;;;;;;;8.24;75.56;99085.66;5030195;28;20085;-78
2023/01/14 08:46:51;;;;;;;17.75;3.15;;;;;;;8.25;75.84;99069.00;5029798;28;20061;-78
2023/01/14 08:49:17;;;;;;;30.67;4.28;;;;;;;8.26;75.89;99066.28;5029850;28;20397;-78
2023/01/14 08:51:44;;;;;;;24.40;4.35;;;;;;;8.26;75.82;99062.84;5029748;28;20555;-78
2023/01/14 08:54:10;;;;;;;21.70;3.25;;;;;;;8.27;75.74;99061.91;5029852;28;20061;-78
2023/01/14 08:56:37;;;;;;;22.45;4.35;;;;;;;8.26;75.89;99054.97;5030603;28;20058;-78
2023/01/14 08:59:04;;;;;;;21.65;3.47;;;;;;;8.27;76.12;99040.94;5033657;28;20057;-78
2023/01/14 09:01:31;;;;;;;23.35;3.92;;;;;;;8.26;75.59;99040.06;5011159;28;20054;-78
2023/01/14 09:04:17;;;;;;;22.92;3.83;;;;;;;8.26;75.66;99032.19;5027891;28;20045;-78
2023/01/14 09:17:44;;;;;;;18.08;2.78;;;;;;;8.16;75.78;98997.84;5013564;28;20057;-78
2023/01/14 09:20:17;;;;;;;17.65;3.55;;;;;;;8.12;75.48;98990.25;5013154;28;20053;-78
2023/01/14 09:22:45;;;;;;;16.10;4.55;;;;;;;8.09;75.54;99001.75;4995810;28;20664;-78
2023/01/14 09:25:11;;;;;;;12.15;2.50;;;;;;;8.08;76.08;98977.31;5012448;28;20066;-78
2023/01/14 09:27:51;;;;;;;17.85;3.03;;;;;;;8.04;75.78;98970.56;5012680;28;20057;-78
2023/01/14 09:30:18;;;;;;;17.23;2.55;;;;;;;8.03;76.00;98970.66;5013034;28;20458;-78
2023/01/14 09:32:44;;;;;;;17.48;3.42;;;;;;;8.02;76.12;98966.34;5013303;28;20069;-78
2023/01/14 09:35:11;;;;;;;21.70;3.53;;;;;;;7.99;76.20;98959.50;5012967;28;21017;-78
2023/01/14 09:37:37;;;;;;;16.25;3.20;;;;;;;7.99;76.51;98942.97;5013170;28;20088;-78
2023/01/14 09:40:05;;;;;;;14.80;2.58;;;;;;;7.98;76.85;98951.72;5013320;28;20093;-78
2023/01/14 09:42:36;;;;;;;17.70;2.65;;;;;;;7.94;76.46;98944.06;5012867;28;20093;-78
2023/01/14 09:45:11;;;;;;;14.25;2.75;;;;;;;7.95;76.53;98931.78;5013007;28;20061;-78
2023/01/14 09:47:39;;;;;;;12.93;2.60;;;;;;;7.95;77.13;98939.66;5012983;28;20136;-78
2023/01/14 09:50:10;;;;;;;18.23;2.80;;;;;;;7.95;76.68;98934.41;5013066;28;20061;-78
2023/01/14 09:52:45;;;;;;;14.57;3.22;;;;;;;7.92;76.86;98924.97;5012846;28;20054;-78
2023/01/14 09:55:41;;;;;;;15.25;2.38;;;;;;;7.89;77.14;98922.53;5012979;28;20062;-78
2023/01/14 09:58:37;;;;;;;14.98;2.80;;;;;;;7.89;77.39;98929.56;5012872;28;20061;-78
2023/01/14 10:01:48;;;;;;;18.67;2.95;;;;;;;7.84;77.13;98927.19;5008841;28;20144;-78
2023/01/14 10:04:36;;;;;;;14.93;2.90;;;;;;;7.85;77.01;98894.81;5009065;28;20109;-78
2023/01/14 10:07:06;;;;;;;14.75;3.05;;;;;;;7.85;77.60;98894.00;5012166;28;20057;-78
2023/01/14 10:09:39;;;;;;;12.38;2.45;;;;;;;7.87;77.82;98879.00;5011890;28;20141;-78
2023/01/14 10:12:09;;;;;;;14.82;2.42;;;;;;;7.87;78.20;98851.03;5012758;28;20060;-78
2023/01/14 10:14:47;;;;;;;7.63;2.20;;;;;;;7.88;78.32;98857.94;5012476;28;20577;-78
2023/01/14 10:17:21;;;;;;;14.77;2.97;;;;;;;7.89;78.55;98848.31;5012313;28;20053;-78
2023/01/14 10:19:50;;;;;;;11.80;2.25;;;;;;;7.92;78.62;98835.88;5012368;28;20093;-78
2023/01/14 10:22:34;;;;;;;12.95;2.20;;;;;;;7.91;78.40;98831.56;5012489;28;20054;-78
2023/01/14 10:25:04;;;;;;;9.48;2.40;;;;;;;7.97;78.30;98814.63;5012286;28;20072;-78
2023/01/14 10:27:31;;;;;;;14.30;2.75;;;;;;;7.98;78.57;98803.22;5012123;28;20573;-77
2023/01/14 10:30:16;;;;;;;8.75;2.50;;;;;;;7.98;78.48;98779.63;5010881;28;20064;-78
2023/01/14 10:32:45;;;;;;;8.85;2.33;;;;;;;8.02;78.71;98782.88;5012278;28;20054;-78
2023/01/14 10:35:14;;;;;;;8.38;2.25;;;;;;;8.03;78.81;98764.44;5012121;28;20140;-77
2023/01/14 10:37:40;;;;;;;12.90;2.60;;;;;;;8.05;79.04;98756.50;5011963;28;20053;-78
2023/01/14 10:40:20;;;;;;;12.45;2.10;;;;;;;8.03;78.63;98748.72;5010852;28;20050;-78
2023/01/14 10:42:47;;;;;;;12.82;2.95;;;;;;;8.08;78.92;98730.94;5012016;28;20061;-77
2023/01/14 10:45:14;;;;;;;10.23;2.53;;;;;;;8.10;79.05;98746.56;5011948;28;20142;-77
2023/01/14 10:47:55;;;;;;;11.10;2.80;;;;;;;8.08;78.88;98732.72;5011334;28;20662;-77
2023/01/14 10:50:25;;;;;;;8.07;2.42;;;;;;;8.13;78.92;98706.19;5029781;28;20061;-77
2023/01/14 10:52:53;;;;;;;12.20;2.05;;;;;;;8.15;79.13;98681.56;5012836;28;20149;-78
2023/01/14 10:55:25;;;;;;;9.68;2.53;;;;;;;8.14;79.27;98697.38;5027822;28;20088;-77
2023/01/14 10:58:27;;;;;;;13.05;2.65;;;;;;;8.14;78.97;98674.66;5029960;28;20565;-77
2023/01/14 11:01:00;;;;;;;12.00;2.40;;;;;;;8.16;78.88;98674.56;4968740;28;20051;-77
2023/01/14 11:03:33;;;;;;;9.15;2.25;;;;;;;8.17;79.01;98658.72;4980660;28;20061;-77
2023/01/14 11:06:15;;;;;;;10.38;2.17;;;;;;;8.16;79.15;98654.44;5023513;28;20057;-77
2023/01/14 11:08:52;;;;;;;12.68;2.58;;;;;;;8.15;79.17;98670.25;5030997;28;20057;-77
2023/01/14 11:11:36;;;;;;;11.68;2.08;;;;;;;8.17;79.46;98640.38;5013778;28;20069;-76
2023/01/14 11:14:25;;;;;;;10.98;2.55;;;;;;;8.17;79.31;98643.00;5031101;28;20469;-77
2023/01/14 11:16:53;;;;;;;8.57;2.63;;;;;;;8.21;79.68;98631.38;5013468;28;20080;-77
2023/01/14 11:19:21;;;;;;;9.40;2.20;;;;;;;8.23;80.10;98625.19;5012999;28;20510;-77
2023/01/14 11:21:55;;;;;;;11.88;2.47;;;;;;;8.23;79.63;98625.19;5031005;28;20057;-77
2023/01/14 11:24:48;;;;;;;8.75;2.00;;;;;;;8.24;79.92;98616.38;5030914;28;20061;-77
2023/01/14 11:27:18;;;;;;;11.30;2.00;;;;;;;8.28;80.26;98596.88;5022936;28;20526;-77
2023/01/14 11:29:54;;;;;;;7.60;2.22;;;;;;;8.26;80.33;98628.44;5030893;28;20100;-76
2023/01/14 11:32:32;;;;;;;12.85;2.58;;;;;;;8.27;80.32;98597.84;5013221;28;20061;-77
2023/01/14 11:35:01;;;;;;;10.57;2.35;;;;;;;8.31;80.30;98583.56;5030598;28;20484;-76
2023/01/14 11:37:37;;;;;;;14.00;2.58;;;;;;;8.27;80.01;98561.13;5030735;28;20050;-76
2023/01/14 11:40:05;;;;;;;12.15;2.90;;;;;;;8.32;80.56;98548.53;5030953;28;20049;-76
2023/01/14 11:42:41;;;;;;;10.68;2.22;;;;;;;8.31;80.45;98528.53;5030730;28;20057;-75
2023/01/14 11:45:10;;;;;;;9.90;2.95;;;;;;;8.36;80.39;98510.69;5030532;28;20056;-76
2023/01/14 11:47:56;;;;;;;10.25;2.45;;;;;;;8.35;80.44;98509.03;5030512;28;20065;-77
2023/01/14 11:50:26;;;;;;;9.95;1.92;;;;;;;8.42;80.60;98494.56;5030644;28;20061;-77
2023/01/14 11:53:01;;;;;;;11.40;1.88;;;;;;;8.43;80.83;98485.72;5031074;28;20137;-76
2023/01/14 11:55:32;;;;;;;10.23;1.98;;;;;;;8.47;80.84;98481.09;5030615;28;20203;-76
2023/01/14 11:58:05;;;;;;;7.80;2.30;;;;;;;8.48;81.02;98472.28;5030480;28;20055;-76
2023/01/14 12:00:42;;;;;;;3.45;1.58;;;;;;;8.52;80.84;98468.50;5014295;28;20065;-76
2023/01/14 12:03:23;;;;;;;9.98;2.00;;;;;;;8.52;80.65;98459.81;5030672;28;20058;-76
2023/01/14 12:05:54;;;;;;;6.40;1.92;;;;;;;8.55;80.59;98451.75;5030394;28;20482;-76
2023/01/14 12:08:30;;;;;;;11.05;2.00;;;;;;;8.57;80.71;98450.69;5012848;28;20461;-76
2023/01/14 12:11:00;;;;;;;13.73;2.13;;;;;;;8.61;80.84;98430.34;5030408;28;20571;-74
2023/01/14 12:16:50;;;;;;;6.13;1.67;;;;;;;8.64;81.12;98403.91;5029075;28;20061;-76
2023/01/14 12:19:27;;;;;;;10.13;1.60;;;;;;;8.68;80.72;98386.97;5004021;28;20052;-75
2023/01/14 12:22:15;;;;;;;6.28;1.50;;;;;;;8.66;80.51;98380.16;5029788;28;20129;-75
2023/01/14 12:25:04;;;;;;;11.18;2.58;;;;;;;8.66;80.96;98365.28;5030065;28;20056;-74
2023/01/14 12:27:43;;;;;;;3.47;1.42;;;;;;;8.71;81.00;98357.91;5029739;28;20054;-74
2023/01/14 12:30:30;;;;;;;5.65;2.13;;;;;;;8.71;80.88;98341.34;5027946;28;20081;-75